createdAt,value
2023-04-30T00:02:17.023Z,12.63
2023-04-30T00:04:45.520Z,12.29
2023-04-30T00:07:14.372Z,12.30
2023-04-30T00:09:44.083Z,12.18
2023-04-30T00:12:12.401Z,11.79
2023-04-30T00:14:40.634Z,11.58
2023-04-30T00:17:09.007Z,11.62
2023-04-30T00:19:37.292Z,11.47
2023-04-30T00:22:06.168Z,11.69
2023-04-30T00:24:34.491Z,11.28
2023-04-30T00:27:04.274Z,11.27
2023-04-30T00:29:32.638Z,11.51
2023-04-30T00:32:01.248Z,11.73
2023-04-30T00:34:29.803Z,11.78
2023-04-30T00:36:58.112Z,11.65
2023-04-30T00:39:26.373Z,11.68
2023-04-30T00:41:54.698Z,11.77
2023-04-30T00:44:24.808Z,11.98
2023-04-30T00:46:53.330Z,11.96
2023-04-30T00:49:21.671Z,12.01
2023-04-30T00:51:51.058Z,12.13
2023-04-30T00:54:21.393Z,12.19
2023-04-30T00:56:49.834Z,12.30
2023-04-30T00:59:18.496Z,12.37
2023-04-30T01:01:48.644Z,12.44
2023-04-30T01:04:17.234Z,12.48
2023-04-30T01:06:46.638Z,12.55
2023-04-30T01:09:15.218Z,12.57
2023-04-30T01:11:58.353Z,12.61
2023-04-30T01:14:39.689Z,12.61
2023-04-30T01:17:19.378Z,12.57
2023-04-30T01:19:48.125Z,12.55
2023-04-30T01:22:33.317Z,12.61
2023-04-30T01:25:27.080Z,12.58
2023-04-30T01:28:08.585Z,12.57
2023-04-30T01:30:37.965Z,12.58
2023-04-30T01:33:06.328Z,12.59
2023-04-30T01:36:22.259Z,12.60
2023-04-30T01:39:10.616Z,12.61
2023-04-30T01:41:53.319Z,12.63
2023-04-30T01:44:44.503Z,12.61
2023-04-30T01:47:31.840Z,12.62
2023-04-30T01:50:12.275Z,12.64
2023-04-30T01:52:45.938Z,12.67
2023-04-30T01:55:19.855Z,12.55
2023-04-30T01:57:59.121Z,12.49
2023-04-30T02:00:31.645Z,12.43
2023-04-30T02:03:00.700Z,12.41
2023-04-30T02:05:29.092Z,12.18
2023-04-30T02:07:57.970Z,12.24
2023-04-30T02:10:27.849Z,12.32
2023-04-30T02:12:56.174Z,12.24
2023-04-30T02:15:24.758Z,12.29
2023-04-30T02:17:54.543Z,12.26
2023-04-30T02:20:22.979Z,12.22
2023-04-30T02:22:51.716Z,12.24
2023-04-30T02:25:20.101Z,12.22
2023-04-30T02:27:50.472Z,12.22
2023-04-30T02:30:20.080Z,12.27
2023-04-30T02:32:49.154Z,12.19
2023-04-30T02:35:19.064Z,11.84
2023-04-30T02:37:47.368Z,11.89
2023-04-30T02:40:16.154Z,11.93
2023-04-30T02:42:44.574Z,11.61
2023-04-30T02:45:12.994Z,11.31
2023-04-30T02:47:41.982Z,11.09
2023-04-30T02:50:11.254Z,10.94
2023-04-30T02:52:41.042Z,11.02
2023-04-30T02:55:10.290Z,10.78
2023-04-30T02:57:38.948Z,10.72
2023-04-30T03:00:09.098Z,10.73
2023-04-30T03:02:37.835Z,10.77
2023-04-30T03:05:07.358Z,10.83
2023-04-30T03:07:36.007Z,10.86
2023-04-30T03:10:06.989Z,11.04
2023-04-30T03:12:35.690Z,11.15
2023-04-30T03:15:04.621Z,11.25
2023-04-30T03:17:33.181Z,11.35
2023-04-30T03:20:01.464Z,11.23
2023-04-30T03:22:29.985Z,11.39
2023-04-30T03:24:58.292Z,11.29
2023-04-30T03:27:27.968Z,11.30
2023-04-30T03:29:56.910Z,11.40
2023-04-30T03:32:25.711Z,11.32
2023-04-30T03:34:53.970Z,11.47
2023-04-30T03:37:22.370Z,11.53
2023-04-30T03:39:50.749Z,11.41
2023-04-30T03:42:19.129Z,11.53
2023-04-30T03:44:48.840Z,11.58
2023-04-30T03:47:17.506Z,11.58
2023-04-30T03:49:45.867Z,11.54
2023-04-30T03:52:14.284Z,11.28
2023-04-30T03:54:42.572Z,11.00
2023-04-30T03:57:12.946Z,10.65
2023-04-30T03:59:41.672Z,10.66
2023-04-30T04:02:11.469Z,10.48
2023-04-30T04:04:40.217Z,10.14
2023-04-30T04:07:09.744Z,9.98
2023-04-30T04:09:38.252Z,9.78
2023-04-30T04:12:07.265Z,9.65
2023-04-30T04:14:36.029Z,9.54
2023-04-30T04:17:05.689Z,9.61
2023-04-30T04:19:35.699Z,9.62
2023-04-30T04:22:04.904Z,9.46
2023-04-30T04:24:33.299Z,9.49
2023-04-30T04:27:04.146Z,9.58
2023-04-30T04:29:34.426Z,9.70
2023-04-30T04:32:04.650Z,9.72
2023-04-30T04:34:35.278Z,9.82
2023-04-30T04:37:03.902Z,10.01
2023-04-30T04:39:32.376Z,10.07
2023-04-30T04:42:01.305Z,9.86
2023-04-30T04:44:29.800Z,9.87
2023-04-30T04:46:58.122Z,9.70
2023-04-30T04:49:26.534Z,9.31
2023-04-30T04:51:56.211Z,9.84
2023-04-30T04:54:24.542Z,10.03
2023-04-30T04:56:52.850Z,10.04
2023-04-30T04:59:21.196Z,9.52
2023-04-30T05:01:50.527Z,10.26
2023-04-30T05:04:18.875Z,10.16
2023-04-30T05:06:47.324Z,10.07
2023-04-30T05:09:17.487Z,9.97
2023-04-30T05:11:46.290Z,9.63
2023-04-30T05:14:14.560Z,9.69
2023-04-30T05:16:43.217Z,9.67
2023-04-30T05:19:11.557Z,9.82
2023-04-30T05:21:40.195Z,9.84
2023-04-30T05:24:08.716Z,10.14
2023-04-30T05:26:38.450Z,10.10
2023-04-30T05:29:06.817Z,10.28
2023-04-30T05:31:35.172Z,10.63
2023-04-30T05:34:03.499Z,10.94
2023-04-30T05:36:32.172Z,11.02
2023-04-30T05:39:00.502Z,11.15
2023-04-30T05:41:28.827Z,11.50
2023-04-30T05:43:58.485Z,11.71
2023-04-30T05:46:26.887Z,11.48
2023-04-30T05:48:55.609Z,11.45
2023-04-30T05:51:23.986Z,11.23
2023-04-30T05:53:52.381Z,11.08
2023-04-30T05:56:21.042Z,10.93
2023-04-30T05:58:51.031Z,11.03
2023-04-30T06:01:21.227Z,11.27
2023-04-30T06:03:49.536Z,11.41
2023-04-30T06:06:17.871Z,11.56
2023-04-30T06:08:46.213Z,11.15
2023-04-30T06:11:15.316Z,10.98
2023-04-30T06:13:43.714Z,10.89
2023-04-30T06:16:12.233Z,11.00
2023-04-30T06:18:41.848Z,10.92
2023-04-30T06:21:10.164Z,10.83
2023-04-30T06:23:38.852Z,10.81
2023-04-30T06:26:07.303Z,10.87
2023-04-30T06:28:35.599Z,11.12
2023-04-30T06:31:04.065Z,10.68
2023-04-30T06:33:32.395Z,10.93
2023-04-30T06:36:02.090Z,11.28
2023-04-30T06:38:30.555Z,11.06
2023-04-30T06:40:59.024Z,11.14
2023-04-30T06:43:27.319Z,11.26
2023-04-30T06:45:55.611Z,11.45
2023-04-30T06:48:24.072Z,11.39
2023-04-30T06:50:52.534Z,11.18
2023-04-30T06:53:23.028Z,11.51
2023-04-30T06:55:53.175Z,11.07
2023-04-30T06:58:21.488Z,12.15
2023-04-30T07:00:49.840Z,12.55
2023-04-30T07:03:18.170Z,12.18
2023-04-30T07:05:46.821Z,11.97
2023-04-30T07:08:15.385Z,12.56
2023-04-30T07:10:45.035Z,13.03
2023-04-30T07:13:13.628Z,13.04
2023-04-30T07:15:42.443Z,13.02
2023-04-30T07:18:11.073Z,12.41
2023-04-30T07:20:39.387Z,12.89
2023-04-30T07:23:07.749Z,12.46
2023-04-30T07:25:36.395Z,12.90
2023-04-30T07:28:06.106Z,13.26
2023-04-30T07:30:35.030Z,12.75
2023-04-30T07:33:03.340Z,12.26
2023-04-30T07:35:31.650Z,12.30
2023-04-30T07:37:59.963Z,13.01
2023-04-30T07:40:35.784Z,13.08
2023-04-30T07:43:06.514Z,13.47
2023-04-30T07:45:35.523Z,13.73
2023-04-30T07:48:03.996Z,13.87
2023-04-30T07:50:34.474Z,13.84
2023-04-30T07:53:03.483Z,14.36
2023-04-30T07:55:31.797Z,13.90
2023-04-30T07:58:02.343Z,14.43
2023-04-30T08:00:32.045Z,14.83
2023-04-30T08:03:01.524Z,14.89
2023-04-30T08:05:30.274Z,15.20
2023-04-30T08:07:58.697Z,14.31
2023-04-30T08:10:27.549Z,15.10
2023-04-30T08:12:55.925Z,15.31
2023-04-30T08:15:24.331Z,15.49
2023-04-30T08:17:54.077Z,15.50
2023-04-30T08:20:23.708Z,15.84
2023-04-30T08:22:52.342Z,16.22
2023-04-30T08:25:20.885Z,16.41
2023-04-30T08:27:49.452Z,16.23
2023-04-30T08:30:17.963Z,15.88
2023-04-30T08:32:46.329Z,16.53
2023-04-30T08:35:16.985Z,16.18
2023-04-30T08:37:45.110Z,16.05
2023-04-30T08:40:14.131Z,15.50
2023-04-30T08:42:51.832Z,15.60
2023-04-30T08:45:21.512Z,15.69
2023-04-30T08:47:51.526Z,15.88
2023-04-30T08:50:21.431Z,16.04
2023-04-30T08:52:49.926Z,16.01
2023-04-30T08:55:18.293Z,16.08
2023-04-30T08:57:46.680Z,16.58
2023-04-30T09:00:16.150Z,16.66
2023-04-30T09:02:45.488Z,16.79
2023-04-30T09:05:16.202Z,16.97
2023-04-30T09:10:19.880Z,17.07
2023-04-30T09:13:01.297Z,16.58
2023-04-30T09:15:30.515Z,16.44
2023-04-30T09:18:14.550Z,16.42
2023-04-30T09:20:57.463Z,16.71
2023-04-30T09:23:27.293Z,16.79
2023-04-30T09:25:56.550Z,16.66
2023-04-30T09:28:27.581Z,16.80
2023-04-30T09:30:58.714Z,16.93
2023-04-30T09:33:27.082Z,17.25
2023-04-30T09:35:55.483Z,17.14
2023-04-30T09:38:29.894Z,17.08
2023-04-30T09:41:00.379Z,17.36
2023-04-30T09:43:29.277Z,17.66
2023-04-30T09:46:00.698Z,17.17
2023-04-30T09:48:29.668Z,17.07
2023-04-30T09:50:58.115Z,17.31
2023-04-30T09:53:29.176Z,17.28
2023-04-30T09:55:59.999Z,17.14
2023-04-30T09:58:30.363Z,17.38
2023-04-30T10:01:02.377Z,17.30
2023-04-30T10:03:32.826Z,17.18
2023-04-30T10:06:01.857Z,17.48
2023-04-30T10:08:37.439Z,17.67
2023-04-30T10:11:08.955Z,18.15
2023-04-30T10:13:45.007Z,18.55
2023-04-30T10:16:24.907Z,18.98
2023-04-30T10:18:55.222Z,18.68
2023-04-30T10:21:27.258Z,18.77
2023-04-30T10:23:58.008Z,18.89
2023-04-30T10:26:26.933Z,19.40
2023-04-30T10:28:59.111Z,19.20
2023-04-30T10:31:28.028Z,19.05
2023-04-30T10:34:08.035Z,18.90
2023-04-30T10:36:44.699Z,19.25
2023-04-30T10:39:14.688Z,19.15
2023-04-30T10:41:49.110Z,18.79
2023-04-30T10:44:23.226Z,19.03
2023-04-30T10:46:59.976Z,18.94
2023-04-30T10:49:28.592Z,18.98
2023-04-30T10:52:00.897Z,18.92
2023-04-30T10:54:32.730Z,19.21
2023-04-30T10:57:17.882Z,19.60
2023-04-30T10:59:53.580Z,19.08
2023-04-30T11:02:22.554Z,19.21
2023-04-30T11:05:14.472Z,18.99
2023-04-30T11:07:53.510Z,18.85
2023-04-30T11:10:27.495Z,18.78
2023-04-30T11:12:57.807Z,19.19
2023-04-30T11:15:46.024Z,19.27
2023-04-30T11:18:19.222Z,18.79
2023-04-30T11:20:52.635Z,18.81
2023-04-30T11:23:38.484Z,18.78
2023-04-30T11:26:10.758Z,18.83
2023-04-30T11:28:39.623Z,18.93
2023-04-30T11:31:08.042Z,19.31
2023-04-30T11:33:36.725Z,19.56
2023-04-30T11:36:06.027Z,19.43
2023-04-30T11:38:38.360Z,19.47
2023-04-30T11:41:08.944Z,19.75
2023-04-30T11:43:37.076Z,19.75
2023-04-30T11:46:09.320Z,19.09
2023-04-30T11:48:39.075Z,19.20
2023-04-30T11:51:16.416Z,19.75
2023-04-30T11:53:47.105Z,19.95
2023-04-30T11:56:21.464Z,19.44
2023-04-30T11:58:51.375Z,19.57
2023-04-30T12:01:20.874Z,19.78
2023-04-30T12:03:51.074Z,19.79
2023-04-30T12:06:24.688Z,19.86
2023-04-30T12:08:55.060Z,19.70
2023-04-30T12:11:26.597Z,19.43
2023-04-30T12:13:56.789Z,19.56
2023-04-30T12:16:26.533Z,19.98
2023-04-30T12:18:55.545Z,20.11
2023-04-30T12:21:24.332Z,19.65
2023-04-30T12:23:52.699Z,18.88
2023-04-30T12:26:21.088Z,19.04
2023-04-30T12:28:52.100Z,19.29
2023-04-30T12:31:20.461Z,19.51
2023-04-30T12:33:58.031Z,19.75
2023-04-30T12:36:33.257Z,19.90
2023-04-30T12:39:08.743Z,19.49
2023-04-30T12:41:43.230Z,19.53
2023-04-30T12:44:24.687Z,19.49
2023-04-30T12:46:56.740Z,19.39
2023-04-30T12:49:26.809Z,19.97
2023-04-30T12:52:01.651Z,20.06
2023-04-30T12:54:31.696Z,19.53
2023-04-30T12:57:03.212Z,19.50
2023-04-30T12:59:36.472Z,19.87
2023-04-30T13:02:10.072Z,19.64
2023-04-30T13:04:38.894Z,19.91
2023-04-30T13:07:07.745Z,20.00
2023-04-30T13:09:37.704Z,19.98
2023-04-30T13:12:07.288Z,19.76
2023-04-30T13:14:37.184Z,19.52
2023-04-30T13:17:07.333Z,19.87
2023-04-30T13:19:35.865Z,20.12
2023-04-30T13:22:04.149Z,20.10
2023-04-30T13:24:32.456Z,19.89
2023-04-30T13:27:00.697Z,19.39
2023-04-30T13:29:29.091Z,19.55
2023-04-30T13:31:59.255Z,19.68
2023-04-30T13:34:27.727Z,19.88
2023-04-30T13:36:56.038Z,19.98
2023-04-30T13:39:24.367Z,20.19
2023-04-30T13:41:52.640Z,20.36
2023-04-30T13:44:21.040Z,20.24
2023-04-30T13:46:50.155Z,19.99
2023-04-30T13:49:19.952Z,19.01
2023-04-30T13:51:48.304Z,18.56
2023-04-30T13:54:16.704Z,18.45
2023-04-30T13:56:45.121Z,18.60
2023-04-30T13:59:14.022Z,18.13
2023-04-30T14:01:43.036Z,18.13
2023-04-30T14:04:11.357Z,18.12
2023-04-30T14:06:42.137Z,18.57
2023-04-30T14:09:10.889Z,18.67
2023-04-30T14:11:39.950Z,18.75
2023-04-30T14:14:09.130Z,19.07
2023-04-30T14:16:37.705Z,18.95
2023-04-30T14:19:06.040Z,18.96
2023-04-30T14:21:34.376Z,18.60
2023-04-30T14:24:04.095Z,18.40
2023-04-30T14:26:32.425Z,18.13
2023-04-30T14:29:00.782Z,18.04
2023-04-30T14:31:29.117Z,18.09
2023-04-30T14:33:57.505Z,18.16
2023-04-30T14:36:27.560Z,18.25
2023-04-30T14:38:56.114Z,18.33
2023-04-30T14:41:25.845Z,18.43
2023-04-30T14:43:54.225Z,18.45
2023-04-30T14:46:22.697Z,18.68
2023-04-30T14:48:51.010Z,18.65
2023-04-30T14:51:19.337Z,18.20
2023-04-30T14:53:47.609Z,17.79
2023-04-30T14:56:15.990Z,18.04
2023-04-30T14:58:45.722Z,18.07
2023-04-30T15:01:14.095Z,18.12
2023-04-30T15:03:42.557Z,18.12
2023-04-30T15:06:11.223Z,17.90
2023-04-30T15:08:41.667Z,17.80
2023-04-30T15:11:10.768Z,17.95
2023-04-30T15:13:39.058Z,18.39
2023-04-30T15:16:09.353Z,18.61
2023-04-30T15:18:37.799Z,18.79
2023-04-30T15:21:06.830Z,18.90
2023-04-30T15:23:35.343Z,18.61
2023-04-30T15:26:04.454Z,18.37
2023-04-30T15:28:33.330Z,18.27
2023-04-30T15:31:01.852Z,18.25
2023-04-30T15:33:31.860Z,18.32
2023-04-30T15:36:00.506Z,18.24
2023-04-30T15:38:29.217Z,18.54
2023-04-30T15:40:57.574Z,18.13
2023-04-30T15:43:26.066Z,17.96
2023-04-30T15:45:54.552Z,17.80
2023-04-30T15:48:23.069Z,17.83
2023-04-30T15:50:52.755Z,17.84
2023-04-30T15:53:21.129Z,18.15
2023-04-30T15:55:50.691Z,17.89
2023-04-30T15:58:19.158Z,17.88
2023-04-30T16:00:47.578Z,17.94
2023-04-30T16:03:16.025Z,17.96
2023-04-30T16:05:44.379Z,18.14
2023-04-30T16:08:15.046Z,18.11
2023-04-30T16:10:43.472Z,18.16
2023-04-30T16:13:11.789Z,18.18
2023-04-30T16:15:40.147Z,18.43
2023-04-30T16:18:10.113Z,18.47
2023-04-30T16:20:38.738Z,18.38
2023-04-30T16:23:07.083Z,18.48
2023-04-30T16:25:39.122Z,18.39
2023-04-30T16:28:07.526Z,18.21
2023-04-30T16:30:36.098Z,18.26
2023-04-30T16:33:04.608Z,18.57
2023-04-30T16:35:33.007Z,18.27
2023-04-30T16:38:02.600Z,18.20
2023-04-30T16:40:31.098Z,18.15
2023-04-30T16:43:00.878Z,18.32
2023-04-30T16:45:30.335Z,18.12
2023-04-30T16:47:59.148Z,18.01
2023-04-30T16:50:27.816Z,17.94
2023-04-30T16:52:56.232Z,18.00
2023-04-30T16:55:25.087Z,18.11
2023-04-30T16:57:53.890Z,18.13
2023-04-30T17:00:23.730Z,18.41
2023-04-30T17:02:53.218Z,18.33
2023-04-30T17:05:22.311Z,18.28
2023-04-30T17:07:50.604Z,18.23
2023-04-30T17:10:21.333Z,18.25
2023-04-30T17:12:49.586Z,17.90
2023-04-30T17:15:19.770Z,17.79
2023-04-30T17:17:49.516Z,17.83
2023-04-30T17:20:18.168Z,17.79
2023-04-30T17:22:47.363Z,17.84
2023-04-30T17:25:16.217Z,17.67
2023-04-30T17:27:44.530Z,17.68
2023-04-30T17:30:13.442Z,17.84
2023-04-30T17:32:42.342Z,17.89
2023-04-30T17:35:12.199Z,18.06
2023-04-30T17:37:40.871Z,18.10
2023-04-30T17:40:10.809Z,17.89
2023-04-30T17:42:39.920Z,18.00
2023-04-30T17:45:09.524Z,17.88
2023-04-30T17:47:38.022Z,18.07
2023-04-30T17:50:09.689Z,17.86
2023-04-30T17:52:39.581Z,17.85
2023-04-30T17:55:09.379Z,17.82
2023-04-30T17:57:38.251Z,17.92
2023-04-30T18:00:08.649Z,17.71
2023-04-30T18:02:43.165Z,17.90
2023-04-30T18:05:11.897Z,17.40
2023-04-30T18:07:41.627Z,17.83
2023-04-30T18:10:11.215Z,17.69
2023-04-30T18:12:39.835Z,17.71
2023-04-30T18:15:09.481Z,17.85
2023-04-30T18:17:37.881Z,17.99
2023-04-30T18:20:08.142Z,17.82
2023-04-30T18:22:42.467Z,17.85
2023-04-30T18:25:14.129Z,17.77
2023-04-30T18:27:42.558Z,17.89
2023-04-30T18:30:12.729Z,17.74
2023-04-30T18:32:44.433Z,17.90
2023-04-30T18:35:12.839Z,17.79
2023-04-30T18:37:41.112Z,17.59
2023-04-30T18:40:12.347Z,17.68
2023-04-30T18:42:40.755Z,17.72
2023-04-30T18:45:11.442Z,17.64
2023-04-30T18:47:39.715Z,17.60
2023-04-30T18:50:13.635Z,17.26
2023-04-30T18:52:42.884Z,17.34
2023-04-30T18:55:14.017Z,17.31
2023-04-30T18:57:43.375Z,17.36
2023-04-30T19:00:14.593Z,17.32
2023-04-30T19:02:44.211Z,17.40
2023-04-30T19:05:12.825Z,17.50
2023-04-30T19:07:41.160Z,17.65
2023-04-30T19:10:10.380Z,17.01
2023-04-30T19:12:40.521Z,17.64
2023-04-30T19:15:11.645Z,17.65
2023-04-30T19:17:40.236Z,17.80
2023-04-30T19:20:10.331Z,17.87
2023-04-30T19:22:38.812Z,18.18
2023-04-30T19:25:08.076Z,18.31
2023-04-30T19:27:36.467Z,18.31
2023-04-30T19:30:08.181Z,18.48
2023-04-30T19:32:37.267Z,18.56
2023-04-30T19:35:06.621Z,18.58
2023-04-30T19:37:35.024Z,18.62
2023-04-30T19:40:04.286Z,18.68
2023-04-30T19:42:32.575Z,18.70
2023-04-30T19:45:00.873Z,18.16
2023-04-30T19:47:30.733Z,18.56
2023-04-30T19:49:59.099Z,18.47
2023-04-30T19:52:27.441Z,18.36
2023-04-30T19:54:56.039Z,18.50
2023-04-30T19:57:24.307Z,18.34
2023-04-30T19:59:52.588Z,18.34
2023-04-30T20:02:20.913Z,18.27
2023-04-30T20:04:50.640Z,18.05
2023-04-30T20:07:20.412Z,18.11
2023-04-30T20:09:48.886Z,18.11
2023-04-30T20:12:17.281Z,18.16
2023-04-30T20:14:45.604Z,18.23
2023-04-30T20:17:14.847Z,18.31
2023-04-30T20:19:43.340Z,18.31
2023-04-30T20:22:13.271Z,18.30
2023-04-30T20:24:44.659Z,18.41
2023-04-30T20:27:13.446Z,18.37
2023-04-30T20:29:41.995Z,18.43
2023-04-30T20:32:10.459Z,18.42
2023-04-30T20:34:38.755Z,18.43
2023-04-30T20:37:07.276Z,18.38
2023-04-30T20:39:39.057Z,18.41
2023-04-30T20:42:07.478Z,18.36
2023-04-30T20:44:35.914Z,18.36
2023-04-30T20:47:06.328Z,18.38
2023-04-30T20:49:34.790Z,18.35
2023-04-30T20:52:03.053Z,18.28
2023-04-30T20:54:31.434Z,18.22
2023-04-30T20:57:01.112Z,18.24
2023-04-30T20:59:29.682Z,17.60
2023-04-30T21:01:58.291Z,18.19
2023-04-30T21:04:26.708Z,18.20
2023-04-30T21:06:55.235Z,18.19
2023-04-30T21:09:23.688Z,18.14
2023-04-30T21:11:51.978Z,18.11
2023-04-30T21:14:21.746Z,18.04
2023-04-30T21:16:51.294Z,17.95
2023-04-30T21:19:19.762Z,17.95
2023-04-30T21:21:48.439Z,17.89
2023-04-30T21:24:16.984Z,17.88
2023-04-30T21:26:45.403Z,17.86
2023-04-30T21:29:14.524Z,17.82
2023-04-30T21:31:44.307Z,17.83
2023-04-30T21:34:12.690Z,17.82
2023-04-30T21:36:41.382Z,17.78
2023-04-30T21:39:09.705Z,17.77
2023-04-30T21:41:38.063Z,17.72
2023-04-30T21:44:06.797Z,17.76
2023-04-30T21:46:35.140Z,17.72
2023-04-30T21:49:04.840Z,17.69
2023-04-30T21:51:33.256Z,17.69
2023-04-30T21:54:01.576Z,17.67
2023-04-30T21:56:29.836Z,17.59
2023-04-30T21:58:58.237Z,17.56
2023-04-30T22:01:29.807Z,17.54
2023-04-30T22:03:58.697Z,17.49
2023-04-30T22:06:28.606Z,17.49
2023-04-30T22:08:57.049Z,17.44
2023-04-30T22:11:25.950Z,17.46
2023-04-30T22:13:54.297Z,17.39
2023-04-30T22:16:22.834Z,17.41
2023-04-30T22:18:51.602Z,17.48
2023-04-30T22:21:19.906Z,17.41
2023-04-30T22:23:49.675Z,17.38
2023-04-30T22:26:18.024Z,17.30
2023-04-30T22:28:46.370Z,17.25
2023-04-30T22:31:14.824Z,17.19
2023-04-30T22:33:44.310Z,17.14
2023-04-30T22:36:12.621Z,17.10
2023-04-30T22:38:41.010Z,17.09
2023-04-30T22:41:10.697Z,16.81
2023-04-30T22:43:39.225Z,16.79
2023-04-30T22:46:07.565Z,16.42
2023-04-30T22:48:36.036Z,15.78
2023-04-30T22:51:04.953Z,16.24
2023-04-30T22:53:34.339Z,16.29
2023-04-30T22:56:02.654Z,16.42
2023-04-30T22:58:32.310Z,16.34
2023-04-30T23:01:00.820Z,16.33
2023-04-30T23:03:29.128Z,16.40
2023-04-30T23:06:00.372Z,16.46
2023-04-30T23:08:28.735Z,16.48
2023-04-30T23:10:57.073Z,16.46
2023-04-30T23:13:25.404Z,16.57
2023-04-30T23:15:58.939Z,16.56
2023-04-30T23:18:27.457Z,16.58
2023-04-30T23:20:58.801Z,15.87
2023-04-30T23:23:27.445Z,16.49
2023-04-30T23:25:55.825Z,16.50
2023-04-30T23:28:25.418Z,16.56
2023-04-30T23:30:55.829Z,16.48
2023-04-30T23:33:24.212Z,16.50
2023-04-30T23:35:54.515Z,16.58
2023-04-30T23:38:23.081Z,16.56
2023-04-30T23:40:51.443Z,16.59
2023-04-30T23:43:19.756Z,16.56
2023-04-30T23:45:48.130Z,16.65
2023-04-30T23:48:17.809Z,16.65
2023-04-30T23:50:47.244Z,16.64
2023-04-30T23:53:17.300Z,16.66
2023-04-30T23:55:45.613Z,16.61
2023-04-30T23:58:13.896Z,16.47
